sensor_id;sensor_type;location;lat;lon;timestamp;temperature;humidity
22629;DHT22;11481;53.694;9.910;2022-11-21T00:01:01;0.60;99.90
22629;DHT22;11481;53.694;9.910;2022-11-21T00:03:37;0.70;99.90
22629;DHT22;11481;53.694;9.910;2022-11-21T00:06:04;0.60;99.90
22629;DHT22;11481;53.694;9.910;2022-11-21T00:08:31;0.60;99.90
22629;DHT22;11481;53.694;9.910;2022-11-21T00:10:58;0.60;99.90
22629;DHT22;11481;53.694;9.910;2022-11-21T00:13:25;0.60;99.90
22629;DHT22;11481;53.694;9.910;2022-11-21T00:15:52;0.50;99.90
22629;DHT22;11481;53.694;9.910;2022-11-21T00:18:18;0.40;99.90
22629;DHT22;11481;53.694;9.910;2022-11-21T00:20:45;0.30;99.90
22629;DHT22;11481;53.694;9.910;2022-11-21T00:23:12;0.30;99.90
22629;DHT22;11481;53.694;9.910;2022-11-21T00:25:39;0.30;99.90
22629;DHT22;11481;53.694;9.910;2022-11-21T00:28:05;0.40;99.90
22629;DHT22;11481;53.694;9.910;2022-11-21T00:30:32;0.50;99.90
22629;DHT22;11481;53.694;9.910;2022-11-21T00:32:59;0.50;99.90
22629;DHT22;11481;53.694;9.910;2022-11-21T00:35:26;0.50;99.90
22629;DHT22;11481;53.694;9.910;2022-11-21T00:37:53;0.40;99.90
22629;DHT22;11481;53.694;9.910;2022-11-21T00:40:20;0.40;99.90
22629;DHT22;11481;53.694;9.910;2022-11-21T00:42:47;0.30;99.90
22629;DHT22;11481;53.694;9.910;2022-11-21T00:45:13;0.20;99.90
22629;DHT22;11481;53.694;9.910;2022-11-21T00:47:46;0.30;99.90
22629;DHT22;11481;53.694;9.910;2022-11-21T00:50:13;0.40;99.90
22629;DHT22;11481;53.694;9.910;2022-11-21T00:52:40;0.40;99.90
22629;DHT22;11481;53.694;9.910;2022-11-21T00:55:07;0.40;99.90
22629;DHT22;11481;53.694;9.910;2022-11-21T00:57:33;0.40;99.90
22629;DHT22;11481;53.694;9.910;2022-11-21T01:00:00;0.30;99.90
22629;DHT22;11481;53.694;9.910;2022-11-21T01:02:27;0.30;99.90
22629;DHT22;11481;53.694;9.910;2022-11-21T01:04:53;0.10;99.90
22629;DHT22;11481;53.694;9.910;2022-11-21T01:07:20;0.10;99.90
22629;DHT22;11481;53.694;9.910;2022-11-21T01:09:47;0.10;99.90
22629;DHT22;11481;53.694;9.910;2022-11-21T01:12:14;0.10;99.90
22629;DHT22;11481;53.694;9.910;2022-11-21T01:14:40;0.00;99.90
22629;DHT22;11481;53.694;9.910;2022-11-21T01:17:07;0.00;99.90
22629;DHT22;11481;53.694;9.910;2022-11-21T01:19:34;0.00;99.90
22629;DHT22;11481;53.694;9.910;2022-11-21T01:22:01;0.00;99.90
22629;DHT22;11481;53.694;9.910;2022-11-21T01:24:27;0.00;99.90
22629;DHT22;11481;53.694;9.910;2022-11-21T01:26:55;0.00;99.90
22629;DHT22;11481;53.694;9.910;2022-11-21T01:29:21;0.00;99.90
22629;DHT22;11481;53.694;9.910;2022-11-21T01:31:48;0.00;99.90
22629;DHT22;11481;53.694;9.910;2022-11-21T01:34:15;0.10;99.90
22629;DHT22;11481;53.694;9.910;2022-11-21T01:36:42;0.10;99.90
22629;DHT22;11481;53.694;9.910;2022-11-21T01:39:10;0.10;99.90
22629;DHT22;11481;53.694;9.910;2022-11-21T01:41:39;0.10;99.90
22629;DHT22;11481;53.694;9.910;2022-11-21T01:44:18;0.10;99.90
22629;DHT22;11481;53.694;9.910;2022-11-21T01:46:47;0.10;99.90
22629;DHT22;11481;53.694;9.910;2022-11-21T01:49:23;0.20;99.90
22629;DHT22;11481;53.694;9.910;2022-11-21T01:52:05;0.20;99.90
22629;DHT22;11481;53.694;9.910;2022-11-21T01:54:42;0.20;99.90
22629;DHT22;11481;53.694;9.910;2022-11-21T01:57:14;0.20;99.90
22629;DHT22;11481;53.694;9.910;2022-11-21T02:00:11;0.20;99.90
22629;DHT22;11481;53.694;9.910;2022-11-21T02:02:46;0.10;99.90
22629;DHT22;11481;53.694;9.910;2022-11-21T02:05:17;0.10;99.90
22629;DHT22;11481;53.694;9.910;2022-11-21T02:07:46;0.10;99.90
22629;DHT22;11481;53.694;9.910;2022-11-21T02:10:15;0.10;99.90
22629;DHT22;11481;53.694;9.910;2022-11-21T02:15:16;0.00;99.90
22629;DHT22;11481;53.694;9.910;2022-11-21T02:17:43;0.00;99.90
22629;DHT22;11481;53.694;9.910;2022-11-21T02:20:12;0.00;99.90
22629;DHT22;11481;53.694;9.910;2022-11-21T02:23:17;0.00;99.90
22629;DHT22;11481;53.694;9.910;2022-11-21T02:25:46;0.00;99.90
22629;DHT22;11481;53.694;9.910;2022-11-21T02:28:14;0.00;99.90
22629;DHT22;11481;53.694;9.910;2022-11-21T02:30:42;-0.10;99.90
22629;DHT22;11481;53.694;9.910;2022-11-21T02:33:10;0.00;99.90
22629;DHT22;11481;53.694;9.910;2022-11-21T02:35:37;-0.10;99.90
22629;DHT22;11481;53.694;9.910;2022-11-21T02:38:16;-0.10;99.90
22629;DHT22;11481;53.694;9.910;2022-11-21T02:40:51;-0.10;99.90
22629;DHT22;11481;53.694;9.910;2022-11-21T02:43:23;-0.10;99.90
22629;DHT22;11481;53.694;9.910;2022-11-21T02:45:51;0.00;99.90
22629;DHT22;11481;53.694;9.910;2022-11-21T02:48:17;-0.10;99.90
22629;DHT22;11481;53.694;9.910;2022-11-21T02:50:46;-0.10;99.90
22629;DHT22;11481;53.694;9.910;2022-11-21T02:53:15;0.00;99.90
22629;DHT22;11481;53.694;9.910;2022-11-21T02:55:43;-0.10;99.90
22629;DHT22;11481;53.694;9.910;2022-11-21T02:58:10;-0.10;99.90
22629;DHT22;11481;53.694;9.910;2022-11-21T03:00:40;0.00;99.90
22629;DHT22;11481;53.694;9.910;2022-11-21T03:03:07;0.00;99.90
22629;DHT22;11481;53.694;9.910;2022-11-21T03:05:34;0.00;99.90
22629;DHT22;11481;53.694;9.910;2022-11-21T03:08:01;0.00;99.90
22629;DHT22;11481;53.694;9.910;2022-11-21T03:10:28;0.10;99.90
22629;DHT22;11481;53.694;9.910;2022-11-21T03:12:55;0.10;99.90
22629;DHT22;11481;53.694;9.910;2022-11-21T03:15:29;0.00;99.90
22629;DHT22;11481;53.694;9.910;2022-11-21T03:17:57;0.10;99.90
22629;DHT22;11481;53.694;9.910;2022-11-21T03:20:24;0.10;99.90
22629;DHT22;11481;53.694;9.910;2022-11-21T03:22:50;0.10;99.90
22629;DHT22;11481;53.694;9.910;2022-11-21T03:25:18;0.10;99.90
22629;DHT22;11481;53.694;9.910;2022-11-21T03:27:45;0.10;99.90
22629;DHT22;11481;53.694;9.910;2022-11-21T03:30:15;0.10;99.90
22629;DHT22;11481;53.694;9.910;2022-11-21T03:32:42;0.10;99.90
22629;DHT22;11481;53.694;9.910;2022-11-21T03:35:08;0.10;99.90
22629;DHT22;11481;53.694;9.910;2022-11-21T03:37:35;0.10;99.90
22629;DHT22;11481;53.694;9.910;2022-11-21T03:40:02;0.10;99.90
22629;DHT22;11481;53.694;9.910;2022-11-21T03:42:29;0.00;99.90
22629;DHT22;11481;53.694;9.910;2022-11-21T03:44:56;0.00;99.90
22629;DHT22;11481;53.694;9.910;2022-11-21T03:47:22;0.10;99.90
22629;DHT22;11481;53.694;9.910;2022-11-21T03:49:51;0.00;99.90
22629;DHT22;11481;53.694;9.910;2022-11-21T03:52:17;0.00;99.90
22629;DHT22;11481;53.694;9.910;2022-11-21T03:54:44;0.10;99.90
22629;DHT22;11481;53.694;9.910;2022-11-21T03:57:11;0.00;99.90
22629;DHT22;11481;53.694;9.910;2022-11-21T03:59:37;0.00;99.90
22629;DHT22;11481;53.694;9.910;2022-11-21T04:02:04;-0.10;99.90
22629;DHT22;11481;53.694;9.910;2022-11-21T04:04:31;-0.10;99.90
22629;DHT22;11481;53.694;9.910;2022-11-21T04:06:57;-0.10;99.90
22629;DHT22;11481;53.694;9.910;2022-11-21T04:09:24;-0.10;99.90
22629;DHT22;11481;53.694;9.910;2022-11-21T04:11:51;-0.20;99.90
22629;DHT22;11481;53.694;9.910;2022-11-21T04:14:18;-0.20;99.90
22629;DHT22;11481;53.694;9.910;2022-11-21T04:16:45;-0.20;99.90
22629;DHT22;11481;53.694;9.910;2022-11-21T04:19:27;-0.20;99.90
22629;DHT22;11481;53.694;9.910;2022-11-21T04:21:53;-0.20;99.90
22629;DHT22;11481;53.694;9.910;2022-11-21T04:24:21;-0.30;99.90
22629;DHT22;11481;53.694;9.910;2022-11-21T04:26:47;-0.40;99.90
22629;DHT22;11481;53.694;9.910;2022-11-21T04:29:14;-0.50;99.90
22629;DHT22;11481;53.694;9.910;2022-11-21T04:31:42;-0.50;99.90
22629;DHT22;11481;53.694;9.910;2022-11-21T04:34:09;-0.50;99.90
22629;DHT22;11481;53.694;9.910;2022-11-21T04:36:35;-0.60;99.90
22629;DHT22;11481;53.694;9.910;2022-11-21T04:39:02;-0.60;99.90
22629;DHT22;11481;53.694;9.910;2022-11-21T04:41:29;-0.60;99.90
22629;DHT22;11481;53.694;9.910;2022-11-21T04:43:56;-0.60;99.90
22629;DHT22;11481;53.694;9.910;2022-11-21T04:46:22;-0.60;99.90
22629;DHT22;11481;53.694;9.910;2022-11-21T04:48:50;-0.60;99.90
22629;DHT22;11481;53.694;9.910;2022-11-21T04:51:17;-0.70;99.90
22629;DHT22;11481;53.694;9.910;2022-11-21T04:53:44;-0.70;99.90
22629;DHT22;11481;53.694;9.910;2022-11-21T04:56:10;-0.60;99.90
22629;DHT22;11481;53.694;9.910;2022-11-21T04:58:42;-0.60;99.90
22629;DHT22;11481;53.694;9.910;2022-11-21T05:01:10;-0.60;99.90
22629;DHT22;11481;53.694;9.910;2022-11-21T05:03:37;-0.60;99.90
22629;DHT22;11481;53.694;9.910;2022-11-21T05:06:03;-0.60;99.90
22629;DHT22;11481;53.694;9.910;2022-11-21T05:08:30;-0.60;99.90
22629;DHT22;11481;53.694;9.910;2022-11-21T05:10:57;-0.60;99.90
22629;DHT22;11481;53.694;9.910;2022-11-21T05:13:42;-0.60;99.90
22629;DHT22;11481;53.694;9.910;2022-11-21T05:16:12;-0.60;99.90
22629;DHT22;11481;53.694;9.910;2022-11-21T05:18:38;-0.60;99.90
22629;DHT22;11481;53.694;9.910;2022-11-21T05:21:05;-0.60;99.90
22629;DHT22;11481;53.694;9.910;2022-11-21T05:23:31;-0.60;99.90
22629;DHT22;11481;53.694;9.910;2022-11-21T05:25:58;-0.50;99.90
22629;DHT22;11481;53.694;9.910;2022-11-21T05:28:25;-0.50;99.90
22629;DHT22;11481;53.694;9.910;2022-11-21T05:30:52;-0.50;99.90
22629;DHT22;11481;53.694;9.910;2022-11-21T05:33:18;-0.60;99.90
22629;DHT22;11481;53.694;9.910;2022-11-21T05:35:45;-0.60;99.90
22629;DHT22;11481;53.694;9.910;2022-11-21T05:38:12;-0.60;99.90
22629;DHT22;11481;53.694;9.910;2022-11-21T05:40:39;-0.60;99.90
22629;DHT22;11481;53.694;9.910;2022-11-21T05:43:06;-0.70;99.90
22629;DHT22;11481;53.694;9.910;2022-11-21T05:45:52;-0.60;99.90
22629;DHT22;11481;53.694;9.910;2022-11-21T05:48:18;-0.60;99.90
22629;DHT22;11481;53.694;9.910;2022-11-21T05:50:48;-0.60;99.90
22629;DHT22;11481;53.694;9.910;2022-11-21T05:53:15;-0.60;99.90
22629;DHT22;11481;53.694;9.910;2022-11-21T05:55:43;-0.60;99.90
22629;DHT22;11481;53.694;9.910;2022-11-21T05:58:12;-0.60;99.90
22629;DHT22;11481;53.694;9.910;2022-11-21T06:00:39;-0.60;99.90
22629;DHT22;11481;53.694;9.910;2022-11-21T06:03:06;-0.60;99.90
22629;DHT22;11481;53.694;9.910;2022-11-21T06:06:13;-0.60;99.90
22629;DHT22;11481;53.694;9.910;2022-11-21T06:08:42;-0.60;99.90
22629;DHT22;11481;53.694;9.910;2022-11-21T06:11:11;-0.60;99.90
22629;DHT22;11481;53.694;9.910;2022-11-21T06:13:40;-0.70;99.90
22629;DHT22;11481;53.694;9.910;2022-11-21T06:16:19;-0.80;99.90
22629;DHT22;11481;53.694;9.910;2022-11-21T06:18:48;-0.80;99.90
22629;DHT22;11481;53.694;9.910;2022-11-21T06:21:20;-0.70;99.90
22629;DHT22;11481;53.694;9.910;2022-11-21T06:23:51;-0.70;99.90
22629;DHT22;11481;53.694;9.910;2022-11-21T06:26:20;-0.80;99.90
22629;DHT22;11481;53.694;9.910;2022-11-21T06:28:47;-0.90;99.90
22629;DHT22;11481;53.694;9.910;2022-11-21T06:31:16;-0.90;99.90
22629;DHT22;11481;53.694;9.910;2022-11-21T06:33:44;-0.90;99.90
22629;DHT22;11481;53.694;9.910;2022-11-21T06:36:12;-0.90;99.90
22629;DHT22;11481;53.694;9.910;2022-11-21T06:38:40;-0.90;99.90
22629;DHT22;11481;53.694;9.910;2022-11-21T06:41:11;-0.90;99.90
22629;DHT22;11481;53.694;9.910;2022-11-21T06:43:39;-0.80;99.90
22629;DHT22;11481;53.694;9.910;2022-11-21T06:46:06;-0.80;99.90
22629;DHT22;11481;53.694;9.910;2022-11-21T06:48:34;-0.80;99.90
22629;DHT22;11481;53.694;9.910;2022-11-21T06:51:11;-0.80;99.90
22629;DHT22;11481;53.694;9.910;2022-11-21T06:53:38;-0.80;99.90
22629;DHT22;11481;53.694;9.910;2022-11-21T06:56:05;-0.70;99.90
22629;DHT22;11481;53.694;9.910;2022-11-21T06:58:32;-0.80;99.90
22629;DHT22;11481;53.694;9.910;2022-11-21T07:01:03;-0.70;99.90
22629;DHT22;11481;53.694;9.910;2022-11-21T07:03:31;-0.70;99.90
22629;DHT22;11481;53.694;9.910;2022-11-21T07:05:59;-0.70;99.90
22629;DHT22;11481;53.694;9.910;2022-11-21T07:08:28;-0.70;99.90
22629;DHT22;11481;53.694;9.910;2022-11-21T07:10:59;-0.70;99.90
22629;DHT22;11481;53.694;9.910;2022-11-21T07:13:46;-0.80;99.90
22629;DHT22;11481;53.694;9.910;2022-11-21T07:16:12;-0.80;99.90
22629;DHT22;11481;53.694;9.910;2022-11-21T07:18:40;-0.80;99.90
22629;DHT22;11481;53.694;9.910;2022-11-21T07:21:08;-0.70;99.90
22629;DHT22;11481;53.694;9.910;2022-11-21T07:23:35;-0.70;99.90
22629;DHT22;11481;53.694;9.910;2022-11-21T07:26:04;-0.70;99.90
22629;DHT22;11481;53.694;9.910;2022-11-21T07:28:32;-0.70;99.90
22629;DHT22;11481;53.694;9.910;2022-11-21T07:30:59;-0.70;99.90
22629;DHT22;11481;53.694;9.910;2022-11-21T07:33:26;-0.70;99.90
22629;DHT22;11481;53.694;9.910;2022-11-21T07:35:58;-0.70;99.90
22629;DHT22;11481;53.694;9.910;2022-11-21T07:38:26;-0.70;99.90
22629;DHT22;11481;53.694;9.910;2022-11-21T07:40:55;-0.70;99.90
22629;DHT22;11481;53.694;9.910;2022-11-21T07:43:22;-0.70;99.90
22629;DHT22;11481;53.694;9.910;2022-11-21T07:45:48;-0.70;99.90
22629;DHT22;11481;53.694;9.910;2022-11-21T07:48:15;-0.60;99.90
22629;DHT22;11481;53.694;9.910;2022-11-21T07:50:42;-0.60;99.90
22629;DHT22;11481;53.694;9.910;2022-11-21T07:53:11;-0.60;99.90
22629;DHT22;11481;53.694;9.910;2022-11-21T07:55:37;-0.60;99.90
22629;DHT22;11481;53.694;9.910;2022-11-21T07:58:08;-0.60;99.90
22629;DHT22;11481;53.694;9.910;2022-11-21T08:00:37;-0.60;99.90
22629;DHT22;11481;53.694;9.910;2022-11-21T08:03:05;-0.60;99.90
22629;DHT22;11481;53.694;9.910;2022-11-21T08:05:37;-0.60;99.90
22629;DHT22;11481;53.694;9.910;2022-11-21T08:08:08;-0.50;99.90
22629;DHT22;11481;53.694;9.910;2022-11-21T08:10:44;-0.50;99.90
22629;DHT22;11481;53.694;9.910;2022-11-21T08:13:11;-0.50;99.90
22629;DHT22;11481;53.694;9.910;2022-11-21T08:15:39;-0.40;99.90
22629;DHT22;11481;53.694;9.910;2022-11-21T08:18:16;-0.40;99.90
22629;DHT22;11481;53.694;9.910;2022-11-21T08:20:46;-0.30;99.90
22629;DHT22;11481;53.694;9.910;2022-11-21T08:23:13;-0.30;99.90
22629;DHT22;11481;53.694;9.910;2022-11-21T08:25:40;-0.20;99.90
22629;DHT22;11481;53.694;9.910;2022-11-21T08:28:09;-0.20;99.90
22629;DHT22;11481;53.694;9.910;2022-11-21T08:30:37;-0.10;99.90
22629;DHT22;11481;53.694;9.910;2022-11-21T08:33:04;-0.10;99.90
22629;DHT22;11481;53.694;9.910;2022-11-21T08:35:31;-0.10;99.90
22629;DHT22;11481;53.694;9.910;2022-11-21T08:37:59;-0.10;99.90
22629;DHT22;11481;53.694;9.910;2022-11-21T08:40:27;-0.10;99.90
22629;DHT22;11481;53.694;9.910;2022-11-21T08:43:02;-0.10;99.90
22629;DHT22;11481;53.694;9.910;2022-11-21T08:45:30;-0.10;99.90
22629;DHT22;11481;53.694;9.910;2022-11-21T08:47:57;0.00;99.90
22629;DHT22;11481;53.694;9.910;2022-11-21T08:50:24;0.00;99.90
22629;DHT22;11481;53.694;9.910;2022-11-21T08:52:51;0.00;99.90
22629;DHT22;11481;53.694;9.910;2022-11-21T08:55:18;0.00;99.90
22629;DHT22;11481;53.694;9.910;2022-11-21T08:57:45;0.10;99.90
22629;DHT22;11481;53.694;9.910;2022-11-21T09:00:12;0.20;99.90
22629;DHT22;11481;53.694;9.910;2022-11-21T09:02:39;0.20;99.90
22629;DHT22;11481;53.694;9.910;2022-11-21T09:05:09;0.30;99.90
22629;DHT22;11481;53.694;9.910;2022-11-21T09:07:35;0.30;99.90
22629;DHT22;11481;53.694;9.910;2022-11-21T09:10:03;0.40;99.90
22629;DHT22;11481;53.694;9.910;2022-11-21T09:12:30;0.50;99.90
22629;DHT22;11481;53.694;9.910;2022-11-21T09:14:57;0.60;99.90
22629;DHT22;11481;53.694;9.910;2022-11-21T09:17:42;0.60;99.90
22629;DHT22;11481;53.694;9.910;2022-11-21T09:20:27;0.70;99.90
22629;DHT22;11481;53.694;9.910;2022-11-21T09:22:54;0.70;99.90
22629;DHT22;11481;53.694;9.910;2022-11-21T09:25:20;0.70;99.90
22629;DHT22;11481;53.694;9.910;2022-11-21T09:27:47;0.70;99.90
22629;DHT22;11481;53.694;9.910;2022-11-21T09:30:15;0.70;99.90
22629;DHT22;11481;53.694;9.910;2022-11-21T09:32:41;0.70;99.90
22629;DHT22;11481;53.694;9.910;2022-11-21T09:35:08;0.70;99.90
22629;DHT22;11481;53.694;9.910;2022-11-21T09:37:36;0.70;99.90
22629;DHT22;11481;53.694;9.910;2022-11-21T09:40:03;0.80;99.90
22629;DHT22;11481;53.694;9.910;2022-11-21T09:42:55;0.80;99.90
22629;DHT22;11481;53.694;9.910;2022-11-21T09:45:33;0.90;99.90
22629;DHT22;11481;53.694;9.910;2022-11-21T09:48:08;0.90;99.90
22629;DHT22;11481;53.694;9.910;2022-11-21T09:50:40;0.90;99.90
22629;DHT22;11481;53.694;9.910;2022-11-21T09:53:25;1.00;99.90
22629;DHT22;11481;53.694;9.910;2022-11-21T09:55:58;1.20;99.90
22629;DHT22;11481;53.694;9.910;2022-11-21T09:58:34;1.30;99.90
22629;DHT22;11481;53.694;9.910;2022-11-21T10:01:03;1.40;99.90
22629;DHT22;11481;53.694;9.910;2022-11-21T10:03:49;1.50;99.90
22629;DHT22;11481;53.694;9.910;2022-11-21T10:20:16;1.50;99.90
22629;DHT22;11481;53.694;9.910;2022-11-21T10:25:38;1.50;99.90
22629;DHT22;11481;53.694;9.910;2022-11-21T10:28:56;1.40;99.90
22629;DHT22;11481;53.694;9.910;2022-11-21T10:31:14;1.40;99.90
22629;DHT22;11481;53.694;9.910;2022-11-21T10:33:41;1.50;99.90
22629;DHT22;11481;53.694;9.910;2022-11-21T10:38:43;1.30;99.90
22629;DHT22;11481;53.694;9.910;2022-11-21T10:41:29;1.40;99.90
22629;DHT22;11481;53.694;9.910;2022-11-21T10:47:22;1.60;99.90
22629;DHT22;11481;53.694;9.910;2022-11-21T10:52:41;1.70;99.90
22629;DHT22;11481;53.694;9.910;2022-11-21T10:55:12;1.80;99.90
22629;DHT22;11481;53.694;9.910;2022-11-21T10:57:45;1.80;99.90
22629;DHT22;11481;53.694;9.910;2022-11-21T11:02:42;1.90;99.90
22629;DHT22;11481;53.694;9.910;2022-11-21T11:05:26;2.00;99.90
22629;DHT22;11481;53.694;9.910;2022-11-21T11:10:27;2.20;99.90
22629;DHT22;11481;53.694;9.910;2022-11-21T11:12:54;2.40;99.90
22629;DHT22;11481;53.694;9.910;2022-11-21T11:21:18;2.60;99.90
22629;DHT22;11481;53.694;9.910;2022-11-21T11:23:48;2.80;99.90
22629;DHT22;11481;53.694;9.910;2022-11-21T11:26:27;2.70;99.90
22629;DHT22;11481;53.694;9.910;2022-11-21T11:29:07;2.90;99.90
22629;DHT22;11481;53.694;9.910;2022-11-21T11:31:43;2.90;99.90
22629;DHT22;11481;53.694;9.910;2022-11-21T11:34:12;3.00;99.90
22629;DHT22;11481;53.694;9.910;2022-11-21T11:36:53;3.00;99.90
22629;DHT22;11481;53.694;9.910;2022-11-21T11:39:47;3.20;99.90
22629;DHT22;11481;53.694;9.910;2022-11-21T11:45:47;3.40;99.90
22629;DHT22;11481;53.694;9.910;2022-11-21T11:48:36;3.60;99.90
22629;DHT22;11481;53.694;9.910;2022-11-21T11:51:31;3.60;99.90
22629;DHT22;11481;53.694;9.910;2022-11-21T11:54:16;3.70;99.90
22629;DHT22;11481;53.694;9.910;2022-11-21T11:56:44;3.70;99.90
22629;DHT22;11481;53.694;9.910;2022-11-21T11:59:38;3.70;99.90
22629;DHT22;11481;53.694;9.910;2022-11-21T12:02:41;3.70;99.90
22629;DHT22;11481;53.694;9.910;2022-11-21T12:05:09;3.90;99.90
22629;DHT22;11481;53.694;9.910;2022-11-21T12:07:45;3.90;99.90
22629;DHT22;11481;53.694;9.910;2022-11-21T12:10:42;4.00;99.90
22629;DHT22;11481;53.694;9.910;2022-11-21T12:13:30;3.90;99.90
22629;DHT22;11481;53.694;9.910;2022-11-21T12:16:03;3.90;99.90
22629;DHT22;11481;53.694;9.910;2022-11-21T12:18:49;4.10;99.90
22629;DHT22;11481;53.694;9.910;2022-11-21T12:21:21;4.20;99.90
22629;DHT22;11481;53.694;9.910;2022-11-21T12:23:56;4.20;99.90
22629;DHT22;11481;53.694;9.910;2022-11-21T12:26:44;4.00;99.90
22629;DHT22;11481;53.694;9.910;2022-11-21T12:35:30;4.60;99.90
22629;DHT22;11481;53.694;9.910;2022-11-21T12:38:20;4.60;99.90
22629;DHT22;11481;53.694;9.910;2022-11-21T12:41:15;4.50;99.90
22629;DHT22;11481;53.694;9.910;2022-11-21T12:49:56;4.90;99.90
22629;DHT22;11481;53.694;9.910;2022-11-21T12:52:54;5.00;99.90
22629;DHT22;11481;53.694;9.910;2022-11-21T12:55:41;5.00;99.90
22629;DHT22;11481;53.694;9.910;2022-11-21T12:58:30;5.20;99.90
22629;DHT22;11481;53.694;9.910;2022-11-21T13:04:01;5.30;99.90
22629;DHT22;11481;53.694;9.910;2022-11-21T13:06:33;5.40;99.90
22629;DHT22;11481;53.694;9.910;2022-11-21T13:09:06;5.10;99.90
22629;DHT22;11481;53.694;9.910;2022-11-21T13:11:43;5.10;99.90
22629;DHT22;11481;53.694;9.910;2022-11-21T13:14:28;5.20;99.90
22629;DHT22;11481;53.694;9.910;2022-11-21T13:27:36;5.10;99.90
22629;DHT22;11481;53.694;9.910;2022-11-21T13:32:48;5.20;99.90
22629;DHT22;11481;53.694;9.910;2022-11-21T13:45:58;5.20;99.90
22629;DHT22;11481;53.694;9.910;2022-11-21T13:54:25;5.40;99.90
22629;DHT22;11481;53.694;9.910;2022-11-21T13:59:52;5.10;99.90
22629;DHT22;11481;53.694;9.910;2022-11-21T14:08:20;5.20;99.90
22629;DHT22;11481;53.694;9.910;2022-11-21T14:10:50;5.40;99.90
22629;DHT22;11481;53.694;9.910;2022-11-21T14:13:33;5.50;99.90
22629;DHT22;11481;53.694;9.910;2022-11-21T14:18:47;5.60;99.90
22629;DHT22;11481;53.694;9.910;2022-11-21T14:23:46;5.80;99.90
22629;DHT22;11481;53.694;9.910;2022-11-21T14:26:15;5.80;99.90
22629;DHT22;11481;53.694;9.910;2022-11-21T14:28:45;5.80;99.90
22629;DHT22;11481;53.694;9.910;2022-11-21T14:31:13;5.70;99.90
22629;DHT22;11481;53.694;9.910;2022-11-21T14:33:44;5.70;99.90
22629;DHT22;11481;53.694;9.910;2022-11-21T14:36:16;5.80;99.90
22629;DHT22;11481;53.694;9.910;2022-11-21T14:39:13;5.80;99.90
22629;DHT22;11481;53.694;9.910;2022-11-21T14:42:03;5.80;99.90
22629;DHT22;11481;53.694;9.910;2022-11-21T14:44:30;5.80;99.90
22629;DHT22;11481;53.694;9.910;2022-11-21T14:47:10;5.80;99.90
22629;DHT22;11481;53.694;9.910;2022-11-21T14:49:38;5.80;99.90
22629;DHT22;11481;53.694;9.910;2022-11-21T14:52:20;5.80;99.90
22629;DHT22;11481;53.694;9.910;2022-11-21T14:57:40;5.80;99.90
22629;DHT22;11481;53.694;9.910;2022-11-21T15:00:10;5.80;99.90
22629;DHT22;11481;53.694;9.910;2022-11-21T15:02:57;5.70;99.90
22629;DHT22;11481;53.694;9.910;2022-11-21T15:05:31;5.70;99.90
22629;DHT22;11481;53.694;9.910;2022-11-21T15:08:23;5.70;99.90
22629;DHT22;11481;53.694;9.910;2022-11-21T15:11:09;5.60;99.90
22629;DHT22;11481;53.694;9.910;2022-11-21T15:13:37;5.60;99.90
22629;DHT22;11481;53.694;9.910;2022-11-21T15:16:24;5.50;99.90
22629;DHT22;11481;53.694;9.910;2022-11-21T15:18:51;5.30;99.90
22629;DHT22;11481;53.694;9.910;2022-11-21T15:21:18;5.30;99.90
22629;DHT22;11481;53.694;9.910;2022-11-21T15:23:45;5.30;99.90
22629;DHT22;11481;53.694;9.910;2022-11-21T15:26:29;5.20;99.90
22629;DHT22;11481;53.694;9.910;2022-11-21T15:28:58;5.20;99.90
22629;DHT22;11481;53.694;9.910;2022-11-21T15:31:26;5.10;99.90
22629;DHT22;11481;53.694;9.910;2022-11-21T15:34:04;5.10;99.90
22629;DHT22;11481;53.694;9.910;2022-11-21T15:37:02;5.10;99.90
22629;DHT22;11481;53.694;9.910;2022-11-21T15:39:30;5.10;99.90
22629;DHT22;11481;53.694;9.910;2022-11-21T15:45:01;5.10;99.90
22629;DHT22;11481;53.694;9.910;2022-11-21T15:47:29;5.10;99.90
22629;DHT22;11481;53.694;9.910;2022-11-21T15:49:56;5.10;99.90
22629;DHT22;11481;53.694;9.910;2022-11-21T15:52:24;5.10;99.90
22629;DHT22;11481;53.694;9.910;2022-11-21T15:54:51;5.00;99.90
22629;DHT22;11481;53.694;9.910;2022-11-21T15:57:17;5.00;99.90
22629;DHT22;11481;53.694;9.910;2022-11-21T15:59:45;5.00;99.90
22629;DHT22;11481;53.694;9.910;2022-11-21T16:02:12;4.90;99.90
22629;DHT22;11481;53.694;9.910;2022-11-21T16:04:40;4.80;99.90
22629;DHT22;11481;53.694;9.910;2022-11-21T16:07:07;4.70;99.90
22629;DHT22;11481;53.694;9.910;2022-11-21T16:09:34;4.70;99.90
22629;DHT22;11481;53.694;9.910;2022-11-21T16:12:01;4.70;99.90
22629;DHT22;11481;53.694;9.910;2022-11-21T16:14:28;4.60;99.90
22629;DHT22;11481;53.694;9.910;2022-11-21T16:16:55;4.50;99.90
22629;DHT22;11481;53.694;9.910;2022-11-21T16:19:22;4.50;99.90
22629;DHT22;11481;53.694;9.910;2022-11-21T16:21:48;4.40;99.90
22629;DHT22;11481;53.694;9.910;2022-11-21T16:24:15;4.30;99.90
22629;DHT22;11481;53.694;9.910;2022-11-21T16:26:42;4.30;99.90
22629;DHT22;11481;53.694;9.910;2022-11-21T16:29:09;4.30;99.90
22629;DHT22;11481;53.694;9.910;2022-11-21T16:31:36;4.20;99.90
22629;DHT22;11481;53.694;9.910;2022-11-21T16:34:03;4.20;99.90
22629;DHT22;11481;53.694;9.910;2022-11-21T16:36:31;4.10;99.90
22629;DHT22;11481;53.694;9.910;2022-11-21T16:38:58;4.00;99.90
22629;DHT22;11481;53.694;9.910;2022-11-21T16:41:35;3.90;99.90
22629;DHT22;11481;53.694;9.910;2022-11-21T16:44:02;4.00;99.90
22629;DHT22;11481;53.694;9.910;2022-11-21T16:46:29;4.00;99.90
22629;DHT22;11481;53.694;9.910;2022-11-21T16:49:00;3.90;99.90
22629;DHT22;11481;53.694;9.910;2022-11-21T16:51:28;3.90;99.90
22629;DHT22;11481;53.694;9.910;2022-11-21T16:53:56;3.80;99.90
22629;DHT22;11481;53.694;9.910;2022-11-21T16:56:28;3.70;99.90
22629;DHT22;11481;53.694;9.910;2022-11-21T16:58:55;3.60;99.90
22629;DHT22;11481;53.694;9.910;2022-11-21T17:01:24;3.50;99.90
22629;DHT22;11481;53.694;9.910;2022-11-21T17:03:51;3.50;99.90
22629;DHT22;11481;53.694;9.910;2022-11-21T17:06:21;3.50;99.90
22629;DHT22;11481;53.694;9.910;2022-11-21T17:08:48;3.40;99.90
22629;DHT22;11481;53.694;9.910;2022-11-21T17:11:26;3.40;99.90
22629;DHT22;11481;53.694;9.910;2022-11-21T17:13:56;3.30;99.90
22629;DHT22;11481;53.694;9.910;2022-11-21T17:16:24;3.30;99.90
22629;DHT22;11481;53.694;9.910;2022-11-21T17:18:52;3.40;99.90
22629;DHT22;11481;53.694;9.910;2022-11-21T17:21:19;3.40;99.90
22629;DHT22;11481;53.694;9.910;2022-11-21T17:23:47;3.30;99.90
22629;DHT22;11481;53.694;9.910;2022-11-21T17:26:19;3.30;99.90
22629;DHT22;11481;53.694;9.910;2022-11-21T17:28:59;3.10;99.90
22629;DHT22;11481;53.694;9.910;2022-11-21T17:31:29;3.00;99.90
22629;DHT22;11481;53.694;9.910;2022-11-21T17:33:57;3.00;99.90
22629;DHT22;11481;53.694;9.910;2022-11-21T17:36:25;2.90;99.90
22629;DHT22;11481;53.694;9.910;2022-11-21T17:38:53;2.80;99.90
22629;DHT22;11481;53.694;9.910;2022-11-21T17:41:21;2.70;99.90
22629;DHT22;11481;53.694;9.910;2022-11-21T17:43:52;2.60;99.90
22629;DHT22;11481;53.694;9.910;2022-11-21T17:46:19;2.60;99.90
22629;DHT22;11481;53.694;9.910;2022-11-21T17:48:49;2.60;99.90
22629;DHT22;11481;53.694;9.910;2022-11-21T17:51:31;2.60;99.90